Time;durP1;ratioP1;P1;durP2;ratioP2;P2;SDS_P1;SDS_P2;PMS_P1;PMS_P2;Temp;Humidity;BMP_temperature;BMP_pressure;BME280_temperature;BME280_humidity;BME280_pressure;Samples;Min_cycle;Max_cycle;Signal;HPM_P1;HPM_P2
2022/12/09 00:00:24;;;;;;;10.40;6.20;;;;;;;18.83;46.36;99310.88;5026962;28;20178;-64
2022/12/09 00:02:50;;;;;;;10.80;7.10;;;;;;;18.81;46.20;99316.16;5029410;28;20190;-64
2022/12/09 00:05:16;;;;;;;12.17;7.00;;;;;;;18.78;46.50;99316.16;5063200;28;20218;-65
2022/12/09 00:07:41;;;;;;;11.37;6.97;;;;;;;18.80;46.51;99305.97;5058821;28;20188;-65
2022/12/09 00:10:07;;;;;;;9.73;6.77;;;;;;;18.79;46.69;99307.19;5043099;28;20195;-65
2022/12/09 00:12:32;;;;;;;13.00;7.20;;;;;;;18.79;46.86;99300.63;5042579;28;20194;-65
2022/12/09 00:14:58;;;;;;;13.43;7.70;;;;;;;18.78;47.06;99299.84;5076696;28;20175;-65
2022/12/09 00:17:23;;;;;;;11.00;6.70;;;;;;;18.75;47.08;99294.91;5078359;28;20171;-64
2022/12/09 00:19:48;;;;;;;9.10;6.73;;;;;;;18.77;47.20;99295.31;5076640;28;20156;-64
2022/12/09 00:22:14;;;;;;;12.47;7.00;;;;;;;18.78;47.48;99296.16;5071691;28;20186;-65
2022/12/09 00:24:39;;;;;;;12.70;6.90;;;;;;;18.76;47.52;99298.63;5077032;28;20171;-65
2022/12/09 00:27:05;;;;;;;9.40;6.10;;;;;;;18.75;47.83;99299.81;5064419;28;20176;-65
2022/12/09 00:29:30;;;;;;;10.20;6.40;;;;;;;18.73;47.86;99290.84;5067046;28;20202;-65
2022/12/09 00:31:56;;;;;;;8.10;6.00;;;;;;;18.73;48.07;99283.09;5073173;28;20178;-65
2022/12/09 00:34:21;;;;;;;9.37;6.47;;;;;;;18.73;47.83;99291.66;5057165;28;20187;-64
2022/12/09 00:36:46;;;;;;;9.50;6.03;;;;;;;18.77;48.47;99291.66;5039653;28;20172;-65
2022/12/09 00:39:12;;;;;;;8.83;6.77;;;;;;;18.76;48.28;99290.03;5069666;28;20684;-64
2022/12/09 00:41:37;;;;;;;11.47;5.90;;;;;;;18.72;48.24;99290.00;5068023;28;20554;-64
2022/12/09 00:44:03;;;;;;;13.20;6.63;;;;;;;18.69;48.62;99282.25;5022500;28;20638;-64
2022/12/09 00:46:28;;;;;;;8.30;5.73;;;;;;;18.72;48.15;99283.47;5050333;28;20259;-64
2022/12/09 00:48:54;;;;;;;8.73;5.50;;;;;;;18.68;48.75;99271.22;5041753;28;20190;-65
2022/12/09 00:51:21;;;;;;;9.10;5.97;;;;;;;18.71;48.62;99276.13;5071828;28;20191;-65
2022/12/09 00:53:46;;;;;;;8.27;6.03;;;;;;;18.70;48.75;99269.59;5076785;28;20159;-64
2022/12/09 00:56:12;;;;;;;8.67;6.23;;;;;;;18.67;48.62;99272.47;5075671;28;20800;-64
2022/12/09 00:58:38;;;;;;;9.00;6.30;;;;;;;18.60;49.14;99273.25;5075137;28;20227;-64
2022/12/09 01:01:03;;;;;;;8.90;5.63;;;;;;;18.65;48.96;99267.13;5064378;28;20445;-64
2022/12/09 01:03:29;;;;;;;9.33;6.30;;;;;;;18.66;48.77;99276.53;5073161;28;20182;-64
2022/12/09 01:05:54;;;;;;;10.50;5.70;;;;;;;18.63;49.06;99275.31;5076315;28;20197;-64
2022/12/09 01:08:20;;;;;;;9.20;6.00;;;;;;;18.60;49.08;99276.13;5068526;28;20207;-64
2022/12/09 01:10:45;;;;;;;9.70;5.93;;;;;;;18.60;49.35;99266.72;5059387;28;20180;-64
2022/12/09 01:13:11;;;;;;;10.87;5.93;;;;;;;18.61;49.17;99268.38;5038806;28;20179;-64
2022/12/09 01:15:37;;;;;;;8.20;5.97;;;;;;;18.62;49.30;99270.78;5067841;28;20179;-64
2022/12/09 01:18:03;;;;;;;8.77;6.30;;;;;;;18.65;49.34;99272.03;5076065;28;20437;-64
2022/12/09 01:20:28;;;;;;;8.17;6.00;;;;;;;18.62;49.48;99267.13;5074427;28;20190;-64
2022/12/09 01:22:54;;;;;;;10.87;5.80;;;;;;;18.62;49.36;99272.84;5072813;28;20194;-64
2022/12/09 01:25:19;;;;;;;10.97;6.80;;;;;;;18.62;49.52;99272.84;5057967;28;20177;-64
2022/12/09 01:27:44;;;;;;;9.13;5.90;;;;;;;18.63;49.56;99278.16;5059213;28;20183;-65
2022/12/09 01:30:11;;;;;;;8.23;5.07;;;;;;;18.62;49.33;99262.22;5055897;28;20385;-64
2022/12/09 01:32:37;;;;;;;8.20;5.30;;;;;;;18.60;49.64;99263.84;5065656;28;20179;-65
2022/12/09 01:35:03;;;;;;;8.20;5.73;;;;;;;18.61;49.70;99266.31;5076392;28;20829;-64
2022/12/09 01:37:30;;;;;;;8.50;5.40;;;;;;;18.62;49.75;99261.41;5055946;28;20600;-64
2022/12/09 01:39:56;;;;;;;9.40;5.10;;;;;;;18.66;49.87;99268.75;5056596;28;20482;-64
2022/12/09 01:42:23;;;;;;;8.90;5.20;;;;;;;18.59;49.65;99254.47;5055379;28;20422;-64
2022/12/09 01:45:19;;;;;;;8.00;5.80;;;;;;;18.60;49.77;99256.09;5058644;28;20187;-64
2022/12/09 01:47:56;;;;;;;7.80;5.30;;;;;;;18.60;49.86;99247.53;5074327;28;21024;-64
2022/12/09 01:50:22;;;;;;;8.43;5.97;;;;;;;18.53;50.05;99241.81;5057803;28;20432;-64
2022/12/09 01:52:47;;;;;;;8.00;5.80;;;;;;;18.54;49.97;99243.44;5071914;28;20430;-64
2022/12/09 01:55:13;;;;;;;7.67;5.53;;;;;;;18.56;50.28;99237.31;5056087;28;20184;-64
2022/12/09 01:57:38;;;;;;;7.50;5.13;;;;;;;18.49;50.40;99238.13;5029588;28;20767;-64
2022/12/09 02:00:38;;;;;;;6.73;4.87;;;;;;;18.49;50.38;99231.59;5018141;28;20177;-64
2022/12/09 02:03:04;;;;;;;8.00;5.17;;;;;;;18.53;50.10;99238.97;5025026;28;20322;-64
2022/12/09 02:05:29;;;;;;;8.93;5.60;;;;;;;18.54;50.30;99242.63;5037797;28;20767;-64
2022/12/09 02:07:55;;;;;;;7.63;5.17;;;;;;;18.51;50.25;99232.81;5055751;28;20430;-64
2022/12/09 02:10:20;;;;;;;8.67;5.30;;;;;;;18.55;50.14;99227.91;5055528;28;20975;-64
2022/12/09 02:13:32;;;;;;;6.73;5.00;;;;;;;18.54;50.10;99226.28;5047961;28;20187;-64
2022/12/09 02:15:57;;;;;;;7.80;4.93;;;;;;;18.50;50.37;99219.75;4977104;28;20334;-65
2022/12/09 02:18:39;;;;;;;8.47;5.10;;;;;;;18.52;50.18;99205.84;5038910;28;20437;-64
2022/12/09 02:21:35;;;;;;;7.60;5.40;;;;;;;18.47;50.32;99214.03;5044233;28;20206;-64
2022/12/09 02:24:23;;;;;;;7.40;5.33;;;;;;;18.54;50.42;99209.16;5044484;28;20497;-64
2022/12/09 02:27:14;;;;;;;9.63;6.30;;;;;;;18.48;50.21;99213.63;5057985;28;20560;-64
2022/12/09 02:30:03;;;;;;;7.10;4.97;;;;;;;18.48;50.48;99199.34;5047021;28;20839;-65
2022/12/09 02:32:50;;;;;;;7.30;5.13;;;;;;;18.54;50.31;99192.00;5041535;28;20445;-65
2022/12/09 02:35:19;;;;;;;6.00;4.20;;;;;;;18.52;50.56;99193.63;5044528;28;20445;-64
2022/12/09 02:38:09;;;;;;;6.60;5.00;;;;;;;18.48;50.52;99184.22;5044459;28;20407;-64
2022/12/09 02:40:39;;;;;;;7.90;4.80;;;;;;;18.51;50.49;99175.66;5043377;28;20428;-64
2022/12/09 02:43:04;;;;;;;8.50;5.70;;;;;;;18.51;50.39;99184.22;5062618;28;20881;-64
2022/12/09 02:45:30;;;;;;;7.63;5.50;;;;;;;18.50;50.62;99174.03;5044351;28;20426;-64
2022/12/09 02:47:55;;;;;;;8.40;5.20;;;;;;;18.50;50.56;99174.03;5061699;28;20168;-64
2022/12/09 02:50:22;;;;;;;7.27;5.53;;;;;;;18.52;50.70;99168.69;5010132;28;20270;-64
2022/12/09 02:52:50;;;;;;;7.07;4.63;;;;;;;18.55;50.34;99172.78;5036384;28;20176;-65
2022/12/09 02:55:15;;;;;;;7.27;5.20;;;;;;;18.53;50.35;99170.38;5012505;28;20454;-64
2022/12/09 02:57:41;;;;;;;5.97;4.40;;;;;;;18.50;50.67;99168.31;5008041;28;20559;-64
2022/12/09 03:00:07;;;;;;;7.10;5.33;;;;;;;18.50;50.79;99161.75;5024124;28;20674;-64
2022/12/09 03:02:39;;;;;;;6.50;4.63;;;;;;;18.52;50.46;99165.84;5042810;28;20184;-64
2022/12/09 03:05:17;;;;;;;7.53;4.53;;;;;;;18.49;50.54;99163.00;5057025;28;20438;-64
2022/12/09 03:07:58;;;;;;;7.93;4.63;;;;;;;18.45;51.05;99160.16;5042443;28;20403;-64
2022/12/09 03:10:25;;;;;;;6.37;4.30;;;;;;;18.52;50.42;99153.63;5058183;28;20478;-64
2022/12/09 03:13:14;;;;;;;6.17;4.70;;;;;;;18.46;50.90;99158.91;5032496;28;20438;-64
2022/12/09 03:15:42;;;;;;;7.00;5.30;;;;;;;18.47;51.02;99146.25;5045698;28;20832;-64
2022/12/09 03:18:09;;;;;;;6.23;4.80;;;;;;;18.44;50.63;99141.38;5055023;28;20431;-64
2022/12/09 03:20:36;;;;;;;8.17;4.70;;;;;;;18.47;50.65;99146.25;5006782;28;20423;-64
2022/12/09 03:23:02;;;;;;;7.43;4.90;;;;;;;18.52;50.54;99148.69;5020446;28;20948;-64
2022/12/09 03:25:33;;;;;;;7.80;5.23;;;;;;;18.46;50.74;99144.63;5040676;28;20419;-64
2022/12/09 03:28:02;;;;;;;6.73;4.40;;;;;;;18.49;51.04;99143.81;5055883;28;20278;-64
2022/12/09 03:30:32;;;;;;;5.50;4.70;;;;;;;18.48;50.78;99136.47;5058314;28;20414;-64
2022/12/09 03:32:58;;;;;;;11.07;5.00;;;;;;;18.39;50.89;99138.09;5011448;28;20475;-63
2022/12/09 03:35:45;;;;;;;6.43;4.43;;;;;;;18.42;50.95;99143.00;5040747;28;20505;-64
2022/12/09 03:38:13;;;;;;;6.50;4.73;;;;;;;18.42;50.67;99126.66;5040197;28;20188;-64
2022/12/09 03:40:38;;;;;;;7.37;5.17;;;;;;;18.40;50.95;99134.81;5057087;28;20429;-64
2022/12/09 03:43:14;;;;;;;6.67;5.07;;;;;;;18.41;50.92;99112.81;5058972;28;20770;-64
2022/12/09 03:45:40;;;;;;;6.97;5.23;;;;;;;18.42;50.84;99114.44;5058830;28;20197;-63
2022/12/09 03:48:05;;;;;;;10.23;5.57;;;;;;;18.43;51.04;99111.16;5045021;28;20476;-64
2022/12/09 03:50:34;;;;;;;6.43;4.50;;;;;;;18.38;50.99;99111.56;5039051;28;20542;-64
2022/12/09 03:53:11;;;;;;;6.37;4.87;;;;;;;18.38;51.14;99120.16;5021274;28;20183;-64
2022/12/09 03:56:14;;;;;;;5.70;4.30;;;;;;;18.42;51.04;99111.56;5022459;28;20982;-64
2022/12/09 03:58:40;;;;;;;6.10;4.20;;;;;;;18.40;50.97;99105.44;5042485;28;20488;-64
2022/12/09 04:01:06;;;;;;;6.87;4.47;;;;;;;18.42;51.08;99103.78;5024447;28;20426;-64
2022/12/09 04:03:31;;;;;;;7.10;4.37;;;;;;;18.38;51.09;99105.88;5030728;28;20219;-64
2022/12/09 04:05:57;;;;;;;5.90;4.00;;;;;;;18.40;51.85;99105.44;5058932;28;20691;-64
2022/12/09 04:08:22;;;;;;;7.00;5.10;;;;;;;18.44;50.69;99101.34;5058832;28;20191;-64
2022/12/09 04:10:48;;;;;;;5.70;4.23;;;;;;;18.42;50.94;99092.34;5056756;28;20191;-64
2022/12/09 04:13:13;;;;;;;5.90;4.27;;;;;;;18.37;51.14;99089.91;5039195;28;20242;-64
2022/12/09 04:15:39;;;;;;;6.40;4.30;;;;;;;18.41;51.24;99085.03;5039030;28;20675;-64
2022/12/09 04:18:04;;;;;;;6.63;4.57;;;;;;;18.43;51.17;99081.75;5041382;28;20187;-64
2022/12/09 04:20:29;;;;;;;6.27;4.10;;;;;;;18.48;51.10;99075.63;5038827;28;20161;-65
2022/12/09 04:22:55;;;;;;;6.00;4.13;;;;;;;18.45;50.96;99074.41;5053190;28;20175;-64
2022/12/09 04:25:20;;;;;;;6.93;4.97;;;;;;;18.40;51.27;99071.97;5058738;28;20184;-64
2022/12/09 04:27:46;;;;;;;5.73;4.00;;;;;;;18.44;51.08;99069.94;5047034;28;20184;-64
2022/12/09 04:30:11;;;;;;;7.23;5.00;;;;;;;18.41;50.99;99067.88;5038652;28;20201;-64
2022/12/09 04:32:37;;;;;;;6.17;4.50;;;;;;;18.42;51.20;99052.34;5052763;28;20184;-64
2022/12/09 04:35:02;;;;;;;5.53;4.10;;;;;;;18.43;51.18;99054.00;5058016;28;20194;-64
2022/12/09 04:37:28;;;;;;;6.80;4.40;;;;;;;18.42;51.49;99052.34;5054580;28;20872;-64
2022/12/09 04:39:53;;;;;;;6.93;4.63;;;;;;;18.42;51.23;99046.63;5056723;28;20167;-64
2022/12/09 04:42:19;;;;;;;6.63;4.37;;;;;;;18.48;51.17;99044.19;5057203;28;20187;-63
2022/12/09 04:44:44;;;;;;;7.43;4.13;;;;;;;18.45;51.18;99048.69;5055817;28;20168;-64
2022/12/09 04:47:10;;;;;;;6.13;4.37;;;;;;;18.43;51.15;99044.59;5038213;28;20204;-64
2022/12/09 04:49:35;;;;;;;6.10;3.80;;;;;;;18.41;51.21;99045.00;5021413;28;20199;-64
2022/12/09 04:52:00;;;;;;;6.00;4.47;;;;;;;18.43;51.27;99036.03;5056289;28;20184;-64
2022/12/09 04:54:26;;;;;;;6.00;4.23;;;;;;;18.41;50.90;99036.44;5055222;28;20183;-64
2022/12/09 04:56:51;;;;;;;6.43;4.20;;;;;;;18.45;51.25;99027.84;5020722;28;20204;-64
2022/12/09 04:59:17;;;;;;;6.57;4.53;;;;;;;18.42;50.93;99023.78;5057160;28;20219;-64
2022/12/09 05:01:42;;;;;;;5.93;4.07;;;;;;;18.44;51.14;99027.06;5066280;28;20174;-64
2022/12/09 05:04:08;;;;;;;4.87;3.83;;;;;;;18.45;51.11;99028.69;5072218;28;20213;-65
2022/12/09 05:06:34;;;;;;;4.20;3.10;;;;;;;18.44;51.32;99024.19;5059392;28;20195;-64
2022/12/09 05:08:59;;;;;;;7.00;3.80;;;;;;;18.43;51.14;99019.72;5058654;28;20450;-64
2022/12/09 05:11:25;;;;;;;5.07;3.90;;;;;;;18.46;51.11;99018.88;5057943;28;20175;-64
2022/12/09 05:13:52;;;;;;;6.00;4.40;;;;;;;18.41;51.63;99024.22;5060725;28;20202;-64
2022/12/09 05:16:18;;;;;;;6.17;4.57;;;;;;;18.42;51.23;99015.22;5058037;28;20635;-64
2022/12/09 05:18:44;;;;;;;6.47;4.00;;;;;;;18.44;50.97;99012.78;5059058;28;20507;-64
2022/12/09 05:21:11;;;;;;;6.17;4.00;;;;;;;18.48;51.11;99015.63;5058284;28;20896;-64
2022/12/09 05:23:37;;;;;;;6.63;4.30;;;;;;;18.42;51.38;99009.50;5057543;28;20624;-64
2022/12/09 05:26:03;;;;;;;5.37;4.00;;;;;;;18.40;51.30;99011.97;5060132;28;20449;-64
2022/12/09 05:28:29;;;;;;;4.93;3.47;;;;;;;18.45;51.24;99008.69;5057321;28;20203;-64
2022/12/09 05:31:08;;;;;;;5.10;4.10;;;;;;;18.44;51.09;99009.91;5060022;28;20440;-64
2022/12/09 05:33:34;;;;;;;6.63;4.43;;;;;;;18.45;51.19;99005.00;5057080;28;20179;-64
2022/12/09 05:35:59;;;;;;;6.00;3.83;;;;;;;18.42;51.46;99003.78;5057160;28;20399;-64
2022/12/09 05:38:25;;;;;;;5.97;4.07;;;;;;;18.43;51.37;99008.28;5060749;28;20186;-64
2022/12/09 05:40:50;;;;;;;6.60;4.43;;;;;;;18.45;51.30;99011.53;5077050;28;20186;-64
2022/12/09 05:43:16;;;;;;;6.43;4.30;;;;;;;18.44;51.58;99007.06;5076845;28;20167;-64
2022/12/09 05:45:41;;;;;;;5.60;3.90;;;;;;;18.46;51.12;99004.59;5076027;28;20479;-64
2022/12/09 05:48:06;;;;;;;5.50;3.50;;;;;;;18.46;51.00;98993.16;5073237;28;20515;-64
2022/12/09 05:50:32;;;;;;;4.77;3.00;;;;;;;18.44;51.12;98995.63;5076175;28;20944;-64
2022/12/09 05:52:57;;;;;;;5.60;3.60;;;;;;;18.48;51.28;98998.47;5075717;28;20178;-64
2022/12/09 05:55:23;;;;;;;5.27;3.93;;;;;;;18.50;51.01;98996.00;5076917;28;20167;-63
2022/12/09 05:57:48;;;;;;;5.30;3.87;;;;;;;18.45;50.99;98999.28;5068727;28;20228;-64
2022/12/09 06:00:14;;;;;;;5.93;4.07;;;;;;;18.49;51.17;98998.06;5055506;28;20152;-64
2022/12/09 06:02:39;;;;;;;5.30;3.90;;;;;;;18.48;51.01;98987.03;5057937;28;20674;-63
2022/12/09 06:05:05;;;;;;;5.33;3.77;;;;;;;18.48;51.12;98998.47;5074751;28;20199;-64
2022/12/09 06:07:31;;;;;;;6.43;3.60;;;;;;;18.48;51.21;98990.72;5075769;28;20175;-64
2022/12/09 06:09:56;;;;;;;5.37;3.40;;;;;;;18.46;51.16;98995.22;5073561;28;20210;-64
2022/12/09 06:12:21;;;;;;;5.33;3.53;;;;;;;18.52;51.05;99007.84;5056102;28;20172;-64
2022/12/09 06:14:47;;;;;;;5.00;3.67;;;;;;;18.46;51.17;99001.72;5055786;28;20531;-64
2022/12/09 06:17:12;;;;;;;4.77;3.90;;;;;;;18.45;51.17;98997.25;5058161;28;20192;-64
2022/12/09 06:19:38;;;;;;;4.73;3.80;;;;;;;18.47;51.12;98991.94;5056514;28;20176;-64
2022/12/09 06:22:03;;;;;;;5.57;3.70;;;;;;;18.45;51.16;99002.97;5059046;28;20187;-64
2022/12/09 06:24:29;;;;;;;4.80;3.30;;;;;;;18.47;51.06;98991.13;5055888;28;20193;-64
2022/12/09 06:26:54;;;;;;;5.53;3.23;;;;;;;18.51;50.98;98998.44;5070426;28;20628;-65
2022/12/09 06:29:19;;;;;;;4.70;3.30;;;;;;;18.49;51.20;98994.38;5059965;28;20257;-64
2022/12/09 06:31:45;;;;;;;5.57;3.10;;;;;;;18.51;51.27;98998.44;5062055;28;20175;-63
2022/12/09 06:34:11;;;;;;;5.60;3.83;;;;;;;18.50;50.86;98996.81;5071944;28;20210;-64
2022/12/09 06:36:36;;;;;;;5.03;3.70;;;;;;;18.51;50.93;98994.81;5074569;28;20175;-63
2022/12/09 06:39:02;;;;;;;6.83;4.47;;;;;;;18.51;51.11;98992.75;5075021;28;20607;-63
2022/12/09 06:41:28;;;;;;;4.97;3.93;;;;;;;18.49;51.22;98995.22;5068619;28;20710;-63
2022/12/09 06:43:56;;;;;;;5.73;3.80;;;;;;;18.52;51.16;98997.22;5074236;28;20398;-64
2022/12/09 06:46:22;;;;;;;5.20;3.60;;;;;;;18.50;51.50;98990.28;5066383;28;20194;-64
2022/12/09 06:48:48;;;;;;;5.77;3.80;;;;;;;18.51;51.30;98992.75;5037685;28;20446;-63
2022/12/09 06:51:14;;;;;;;5.20;3.53;;;;;;;18.48;51.41;98996.44;5065785;28;20186;-64
2022/12/09 06:53:39;;;;;;;5.67;4.13;;;;;;;18.45;51.35;98993.56;5057339;28;20182;-63
2022/12/09 06:56:06;;;;;;;5.87;3.80;;;;;;;18.49;51.09;98991.53;5055263;28;20793;-63
2022/12/09 06:58:32;;;;;;;4.70;3.57;;;;;;;18.47;51.26;98986.22;5069266;28;20222;-64
2022/12/09 07:01:10;;;;;;;5.10;3.63;;;;;;;18.50;51.03;98991.13;5076207;28;20432;-63
2022/12/09 07:03:35;;;;;;;5.50;3.70;;;;;;;18.53;51.09;98973.16;5065791;28;20175;-64
2022/12/09 07:06:01;;;;;;;3.63;3.00;;;;;;;18.50;51.15;98968.25;5077921;28;20444;-64
2022/12/09 07:08:27;;;;;;;4.63;3.30;;;;;;;18.52;51.35;98962.91;5061461;28;20191;-64
2022/12/09 07:10:53;;;;;;;4.97;3.63;;;;;;;18.50;51.08;98981.72;5058413;28;20417;-64
2022/12/09 07:13:18;;;;;;;5.30;3.30;;;;;;;18.51;51.45;98981.31;5057604;28;20171;-64
2022/12/09 07:15:43;;;;;;;4.60;3.10;;;;;;;18.56;50.86;98982.94;5074614;28;20187;-64
2022/12/09 07:18:09;;;;;;;5.13;3.70;;;;;;;18.52;51.30;98982.13;5076157;28;20269;-64
2022/12/09 07:20:34;;;;;;;4.97;3.17;;;;;;;18.52;51.65;98977.22;5066205;28;20198;-64
2022/12/09 07:23:00;;;;;;;4.57;3.10;;;;;;;18.51;51.02;98977.66;5074599;28;20194;-63
2022/12/09 07:25:25;;;;;;;5.00;3.47;;;;;;;18.52;51.00;98982.13;5077361;28;20189;-64
2022/12/09 07:27:51;;;;;;;4.67;3.30;;;;;;;18.52;51.17;98982.94;5042580;28;20257;-64
2022/12/09 07:30:16;;;;;;;5.40;3.30;;;;;;;18.52;51.19;98982.94;5059092;28;20215;-64
2022/12/09 07:32:41;;;;;;;5.97;4.00;;;;;;;18.53;51.11;98983.75;5061202;28;20221;-64
2022/12/09 07:35:07;;;;;;;4.00;3.03;;;;;;;18.47;51.12;98988.28;5059056;28;20591;-64
2022/12/09 07:37:33;;;;;;;4.70;3.43;;;;;;;18.49;51.13;98991.53;5065758;28;20179;-64
2022/12/09 07:39:58;;;;;;;5.57;3.70;;;;;;;18.53;51.03;99001.72;5065665;28;20186;-64
2022/12/09 07:42:23;;;;;;;4.90;3.40;;;;;;;18.55;51.16;98987.84;5078047;28;20164;-64
2022/12/09 07:44:49;;;;;;;4.10;3.30;;;;;;;18.50;51.33;98990.28;5066100;28;20198;-64
2022/12/09 07:47:14;;;;;;;4.43;3.30;;;;;;;18.47;51.12;98985.41;5057285;28;20226;-64
2022/12/09 07:49:40;;;;;;;5.17;3.60;;;;;;;18.52;50.99;98991.50;5060284;28;20710;-64
2022/12/09 07:52:05;;;;;;;5.00;3.27;;;;;;;18.56;51.17;98988.66;5066046;28;20186;-64
2022/12/09 07:54:31;;;;;;;4.80;3.40;;;;;;;18.51;50.86;98995.59;5074798;28;20179;-64
2022/12/09 07:56:56;;;;;;;5.00;2.80;;;;;;;18.52;51.33;98982.94;5078603;28;20179;-64
2022/12/09 07:59:22;;;;;;;5.33;3.07;;;;;;;18.51;51.34;98995.59;5078208;28;20627;-64
2022/12/09 08:01:48;;;;;;;5.33;3.43;;;;;;;18.49;51.23;98988.66;5078411;28;20187;-64
2022/12/09 08:04:14;;;;;;;3.93;3.03;;;;;;;18.53;51.00;98987.44;5069190;28;20442;-64
2022/12/09 08:06:39;;;;;;;5.40;3.70;;;;;;;18.55;51.11;98996.41;5058642;28;20187;-64
2022/12/09 08:09:06;;;;;;;4.07;2.90;;;;;;;18.53;51.23;98990.31;5057933;28;20523;-64
2022/12/09 08:11:32;;;;;;;4.30;3.40;;;;;;;18.55;51.40;98996.41;5058265;28;20175;-64
2022/12/09 08:13:59;;;;;;;3.53;2.90;;;;;;;18.55;51.17;98992.72;5060275;28;20441;-64
2022/12/09 08:16:25;;;;;;;5.00;3.40;;;;;;;18.56;51.29;98992.31;5040138;28;20207;-63
2022/12/09 08:18:50;;;;;;;5.13;3.30;;;;;;;18.56;50.96;98991.53;5060236;28;20498;-64
2022/12/09 08:21:20;;;;;;;4.37;3.00;;;;;;;18.51;51.34;98989.88;5060207;28;20175;-64
2022/12/09 08:23:46;;;;;;;3.93;2.87;;;;;;;18.50;51.10;98979.69;5078617;28;20185;-64
2022/12/09 08:26:12;;;;;;;4.27;3.07;;;;;;;18.51;51.21;98986.22;5074139;28;20430;-64
2022/12/09 08:28:37;;;;;;;4.63;3.20;;;;;;;18.53;51.12;98981.72;5078014;28;20316;-64
2022/12/09 08:31:06;;;;;;;4.13;2.90;;;;;;;18.51;51.29;98984.16;5074858;28;20199;-63
2022/12/09 08:33:33;;;;;;;4.43;3.17;;;;;;;18.51;51.08;98975.59;5078291;28;20548;-64
2022/12/09 08:35:59;;;;;;;4.40;2.93;;;;;;;18.55;50.84;98975.56;5077948;28;20409;-64
2022/12/09 08:38:25;;;;;;;3.63;2.97;;;;;;;18.59;51.10;98977.22;5060894;28;20515;-64
2022/12/09 08:40:50;;;;;;;4.60;3.13;;;;;;;18.56;51.01;98966.59;5057250;28;20422;-64
2022/12/09 08:43:16;;;;;;;5.13;3.40;;;;;;;18.56;51.11;98969.44;5065011;28;20908;-64
2022/12/09 08:45:41;;;;;;;3.63;2.80;;;;;;;18.51;51.63;98967.00;5070414;28;20192;-64
2022/12/09 08:48:07;;;;;;;3.70;2.43;;;;;;;18.51;51.31;98978.44;5056473;28;20168;-64
2022/12/09 08:50:33;;;;;;;5.20;3.17;;;;;;;18.51;51.48;98977.66;5056997;28;20203;-64
2022/12/09 08:52:58;;;;;;;4.33;3.00;;;;;;;18.60;50.97;98975.97;5073165;28;20573;-64
2022/12/09 08:55:24;;;;;;;4.43;3.03;;;;;;;18.59;50.75;98976.38;5067684;28;20233;-64
2022/12/09 08:57:49;;;;;;;4.10;3.00;;;;;;;18.56;51.08;98968.66;5058518;28;20224;-64
2022/12/09 09:00:15;;;;;;;4.77;2.63;;;;;;;18.54;51.52;98969.06;5057512;28;20172;-64
2022/12/09 09:02:41;;;;;;;3.87;2.60;;;;;;;18.54;51.27;98963.34;5072993;28;20693;-64
2022/12/09 09:05:06;;;;;;;4.37;2.80;;;;;;;18.56;51.23;98966.59;5077056;28;20217;-65
2022/12/09 09:07:32;;;;;;;3.90;2.57;;;;;;;18.50;51.00;98962.53;5077972;28;20156;-64
2022/12/09 09:09:59;;;;;;;4.17;2.80;;;;;;;18.52;51.16;98965.78;5065065;28;20257;-64
2022/12/09 09:12:25;;;;;;;3.47;2.30;;;;;;;18.51;51.40;98967.00;5058705;28;20230;-64
2022/12/09 09:14:51;;;;;;;3.97;2.63;;;;;;;18.55;51.23;98959.25;5058239;28;20419;-64
2022/12/09 09:17:17;;;;;;;4.63;3.20;;;;;;;18.53;51.27;98964.56;5058966;28;20596;-64
2022/12/09 09:19:42;;;;;;;4.73;2.67;;;;;;;18.54;51.13;98957.63;5060266;28;20434;-64
2022/12/09 09:22:08;;;;;;;3.93;2.60;;;;;;;18.58;51.19;98958.44;5067967;28;20236;-64
2022/12/09 09:24:33;;;;;;;3.93;2.93;;;;;;;18.54;51.37;98954.78;5068710;28;20187;-64
2022/12/09 09:26:58;;;;;;;4.67;3.33;;;;;;;18.59;51.25;98953.50;5058431;28;20175;-64
2022/12/09 09:29:24;;;;;;;4.33;2.60;;;;;;;18.52;51.38;98954.34;5066985;28;20211;-64
2022/12/09 09:31:52;;;;;;;5.67;2.93;;;;;;;18.59;51.40;98950.66;5041610;28;20639;-64
2022/12/09 09:34:18;;;;;;;4.17;2.63;;;;;;;18.55;51.15;98947.81;5058195;28;20190;-64
2022/12/09 09:36:44;;;;;;;3.67;2.60;;;;;;;18.55;51.24;98949.84;5060224;28;20435;-64
2022/12/09 09:39:09;;;;;;;3.83;2.67;;;;;;;18.54;51.43;98954.78;5057319;28;20172;-64
2022/12/09 09:41:50;;;;;;;4.00;3.27;;;;;;;18.53;51.33;98955.19;5059984;28;20176;-64
2022/12/09 09:44:21;;;;;;;4.50;2.93;;;;;;;18.51;51.52;98958.44;5077709;28;20175;-64
2022/12/09 09:46:47;;;;;;;3.53;2.60;;;;;;;18.52;51.33;98954.34;5059118;28;20425;-64
2022/12/09 09:49:18;;;;;;;5.03;2.57;;;;;;;18.51;51.61;98966.22;5061335;28;20466;-64
2022/12/09 09:51:44;;;;;;;4.50;2.90;;;;;;;18.50;51.62;98956.00;5063476;28;20449;-64
2022/12/09 09:54:11;;;;;;;5.10;2.57;;;;;;;18.49;51.90;98954.38;5077170;28;20429;-64
2022/12/09 09:56:44;;;;;;;4.23;2.67;;;;;;;18.52;51.25;98965.78;5055533;28;20179;-65
2022/12/09 09:59:15;;;;;;;3.53;2.60;;;;;;;18.51;51.27;98955.59;5057508;28;20470;-65
2022/12/09 10:01:40;;;;;;;3.70;2.70;;;;;;;18.51;51.29;98955.59;5038956;28;20434;-64
2022/12/09 10:04:14;;;;;;;3.80;2.40;;;;;;;18.46;51.29;98953.16;5059956;28;20517;-64
2022/12/09 10:07:05;;;;;;;3.30;2.40;;;;;;;18.53;51.20;98958.03;5042482;28;20185;-65
2022/12/09 10:09:39;;;;;;;3.60;2.40;;;;;;;18.57;50.75;98951.06;5059316;28;20561;-65
2022/12/09 10:12:11;;;;;;;3.67;3.10;;;;;;;18.57;51.11;98953.13;5056851;28;20535;-64
2022/12/09 10:14:44;;;;;;;3.40;2.30;;;;;;;18.57;51.56;98953.13;5066028;28;21223;-64
2022/12/09 10:17:46;;;;;;;4.30;2.60;;;;;;;18.56;51.29;98948.66;5059033;28;20413;-64
2022/12/09 10:20:19;;;;;;;4.30;2.77;;;;;;;18.55;51.44;98942.09;5022443;28;20481;-64
2022/12/09 10:22:51;;;;;;;3.50;2.67;;;;;;;18.60;51.57;98947.41;5071304;28;20426;-65
2022/12/09 10:25:21;;;;;;;3.17;2.53;;;;;;;18.57;51.29;98938.84;5075389;28;20423;-64
2022/12/09 10:28:05;;;;;;;3.70;2.63;;;;;;;18.57;51.28;98933.91;5072898;28;20425;-65
2022/12/09 10:30:31;;;;;;;3.37;2.43;;;;;;;18.55;51.50;98933.53;5039804;28;20454;-64
2022/12/09 10:32:56;;;;;;;3.50;2.50;;;;;;;18.52;51.33;98924.97;5061377;28;20781;-64
2022/12/09 10:35:24;;;;;;;3.77;2.63;;;;;;;18.52;51.43;98925.78;5063645;28;20245;-64
2022/12/09 10:37:53;;;;;;;3.90;2.90;;;;;;;18.59;51.37;98928.63;5061828;28;20160;-64
2022/12/09 10:40:19;;;;;;;4.43;2.83;;;;;;;18.59;51.63;98919.22;5073094;28;20437;-64
2022/12/09 10:45:33;;;;;;;3.17;2.30;;;;;;;18.64;51.32;98927.38;5063654;28;20222;-64
2022/12/09 10:47:58;;;;;;;2.73;1.97;;;;;;;18.50;51.66;98918.84;5044045;28;20418;-64
2022/12/09 10:50:30;;;;;;;3.40;2.30;;;;;;;18.53;51.62;98918.84;5043473;28;20211;-65
2022/12/09 10:52:56;;;;;;;5.33;2.50;;;;;;;18.59;51.61;98920.03;5064235;28;20224;-64
2022/12/09 10:55:35;;;;;;;3.53;2.60;;;;;;;18.59;51.13;98914.31;5043078;28;20878;-64
2022/12/09 10:58:20;;;;;;;3.10;2.20;;;;;;;18.64;51.20;98911.03;5037217;28;20259;-65
2022/12/09 11:01:06;;;;;;;3.70;2.73;;;;;;;18.60;51.22;98915.94;5042867;28;21056;-64
2022/12/09 11:03:37;;;;;;;3.87;2.37;;;;;;;18.57;51.45;98911.06;5034557;28;20501;-64
2022/12/09 11:06:23;;;;;;;3.70;2.50;;;;;;;18.53;51.26;98909.44;5060657;28;20532;-64
2022/12/09 11:08:58;;;;;;;4.60;2.60;;;;;;;18.54;51.48;98906.19;5042845;28;20461;-64
2022/12/09 11:11:44;;;;;;;3.73;2.70;;;;;;;18.55;51.33;98902.09;5060118;28;20413;-64
2022/12/09 11:14:37;;;;;;;4.27;2.30;;;;;;;18.60;51.36;98893.09;5054380;28;20439;-64
2022/12/09 11:17:16;;;;;;;3.93;2.40;;;;;;;18.54;51.62;98891.06;5020902;28;20449;-64
2022/12/09 11:19:43;;;;;;;3.40;2.33;;;;;;;18.49;51.44;98891.50;5006793;28;20473;-64
2022/12/09 11:22:34;;;;;;;4.00;2.30;;;;;;;18.54;51.57;98891.91;5032375;28;20493;-64
2022/12/09 11:25:20;;;;;;;3.77;2.50;;;;;;;18.53;51.68;98884.56;5052152;28;20450;-65
2022/12/09 11:27:55;;;;;;;4.73;2.90;;;;;;;18.53;51.55;98887.41;5041000;28;20409;-64
2022/12/09 11:30:22;;;;;;;4.37;2.60;;;;;;;18.57;51.56;98885.31;5041864;28;20477;-65
2022/12/09 11:32:57;;;;;;;3.87;2.70;;;;;;;18.56;51.56;98894.34;5039202;28;20895;-64
2022/12/09 11:35:33;;;;;;;6.03;2.70;;;;;;;18.49;51.72;98880.88;5023059;28;20858;-64
2022/12/09 11:38:02;;;;;;;4.07;2.60;;;;;;;18.55;51.66;98879.22;5058349;28;20426;-64
2022/12/09 11:40:28;;;;;;;3.43;2.43;;;;;;;18.55;51.74;98870.66;5047940;28;20522;-65
2022/12/09 11:42:54;;;;;;;3.93;2.60;;;;;;;18.66;51.21;98884.91;5038893;28;20419;-65